Flugplatz Bartholomä-Amalienhof

Für EDPU sind keine METAR/TAF Berichte vorhanden.
Es werden die Flugwettermeldungen vom Flugplatz Adolf Würth in 44 km Entfernung angezeigt.

Prognose für EDTY

vom 15.11. um 00:00 UTC

Am 15.11. zwischen 00:00 UTC und 00:00 UTC

variable Windrichtung mit 3 kt

Sichtweite 10 km oder mehr

aufgebrochene Bewölkung in 4000 ft


Am 15.11. zwischen 00:00 UTC und 00:00 UTC zeitweise

Wind 5 kt aus 60°


Am 15.11. zwischen 00:00 UTC und 00:00 UTC zeitweise

Sichtweite 3500 m

schwacher Regen

aufgebrochene Bewölkung in 1000 ft

TAF EDTY 151700Z 1518/1603 VRB03KT 9999 BKN040 TEMPO 1518/1520 06005KT TEMPO 1521/1524 3500 -RA BKN010
Impressum